createdAt,value
2019-01-04T00:01:33.394Z,881.01
2019-01-04T00:02:32.876Z,881.03
2019-01-04T00:04:25.041Z,881.00
2019-01-04T00:05:25.080Z,881.03
2019-01-04T00:07:17.233Z,881.02
2019-01-04T00:08:17.002Z,881.03
2019-01-04T00:10:09.340Z,881.05
2019-01-04T00:11:09.373Z,881.05
2019-01-04T00:13:01.904Z,881.01
2019-01-04T00:14:01.571Z,881.02
2019-01-04T00:15:54.107Z,881.07
2019-01-04T00:16:54.099Z,881.07
2019-01-04T00:18:46.673Z,881.05
2019-01-04T00:19:46.463Z,881.05
2019-01-04T00:21:38.411Z,881.10
2019-01-04T00:22:38.772Z,881.06
2019-01-04T00:24:30.944Z,881.06
2019-01-04T00:25:30.740Z,881.10
2019-01-04T00:27:23.405Z,881.15
2019-01-04T00:28:23.075Z,881.16
2019-01-04T00:30:15.597Z,881.19
2019-01-04T00:31:15.754Z,881.18
2019-01-04T00:33:07.710Z,881.17
2019-01-04T00:34:07.711Z,881.18
2019-01-04T00:36:00.629Z,881.14
2019-01-04T00:37:00.372Z,881.15
2019-01-04T00:38:52.755Z,881.18
2019-01-04T00:39:52.738Z,881.17
2019-01-04T00:41:44.937Z,881.26
2019-01-04T00:42:45.012Z,881.20
2019-01-04T00:44:37.388Z,881.22
2019-01-04T00:45:37.012Z,881.20
2019-01-04T00:47:29.469Z,881.26
2019-01-04T00:48:28.858Z,881.28
2019-01-04T00:50:21.196Z,881.29
2019-01-04T00:51:21.192Z,881.32
2019-01-04T00:53:13.746Z,881.30
2019-01-04T00:54:13.539Z,881.35
2019-01-04T00:56:06.203Z,881.32
2019-01-04T00:57:05.868Z,881.31
2019-01-04T00:58:58.437Z,881.34
2019-01-04T00:59:58.157Z,881.27
2019-01-04T01:01:50.514Z,881.28
2019-01-04T01:02:50.527Z,881.32
2019-01-04T01:04:43.052Z,881.29
2019-01-04T01:05:43.166Z,881.33
2019-01-04T01:07:35.516Z,881.35
2019-01-04T01:08:35.180Z,881.34
2019-01-04T01:10:27.696Z,881.40
2019-01-04T01:11:27.465Z,881.39
2019-01-04T01:13:20.929Z,881.42
2019-01-04T01:14:21.010Z,881.47
2019-01-04T01:16:13.167Z,881.45
2019-01-04T01:17:12.936Z,881.45
2019-01-04T01:19:05.673Z,881.46
2019-01-04T01:20:05.262Z,881.50
2019-01-04T01:21:57.816Z,881.49
2019-01-04T01:22:57.608Z,881.47
2019-01-04T01:24:50.284Z,881.54
2019-01-04T01:25:50.298Z,881.52
2019-01-04T01:27:42.505Z,881.54
2019-01-04T01:28:42.255Z,881.51
2019-01-04T01:30:34.973Z,881.52
2019-01-04T01:31:34.968Z,881.51
2019-01-04T01:33:27.516Z,881.49
2019-01-04T01:34:27.240Z,881.50
2019-01-04T01:38:16.608Z,881.56
2019-01-04T01:38:50.289Z,881.58
2019-01-04T01:40:42.625Z,881.62
2019-01-04T01:41:42.657Z,881.61
2019-01-04T01:43:35.584Z,881.62
2019-01-04T01:44:34.953Z,881.62
2019-01-04T01:46:27.655Z,881.59
2019-01-04T01:47:27.672Z,881.59
2019-01-04T01:49:19.846Z,881.61
2019-01-04T01:50:19.978Z,881.63
2019-01-04T01:52:11.930Z,881.55
2019-01-04T01:53:12.302Z,881.63
2019-01-04T01:55:04.547Z,881.63
2019-01-04T01:56:04.590Z,881.66
2019-01-04T01:57:56.581Z,881.68
2019-01-04T01:58:56.932Z,881.70
2019-01-04T02:00:49.539Z,881.73
2019-01-04T02:01:49.242Z,881.72
2019-01-04T02:03:41.607Z,881.74
2019-01-04T02:04:41.269Z,881.75
2019-01-04T02:06:34.178Z,881.72
2019-01-04T02:07:33.915Z,881.74
2019-01-04T02:09:26.287Z,881.72
2019-01-04T02:10:26.271Z,881.74
2019-01-04T02:12:18.776Z,881.71
2019-01-04T02:13:18.222Z,881.77
2019-01-04T02:15:10.576Z,881.80
2019-01-04T02:16:10.921Z,881.78
2019-01-04T02:18:03.438Z,881.81
2019-01-04T02:19:03.212Z,881.81
2019-01-04T02:20:55.539Z,881.81
2019-01-04T02:21:55.208Z,881.83
2019-01-04T02:23:48.061Z,881.86
2019-01-04T02:24:47.529Z,881.82
2019-01-04T02:26:39.850Z,881.81
2019-01-04T02:27:40.258Z,881.82
2019-01-04T02:29:32.749Z,881.81
2019-01-04T02:30:32.557Z,881.77
2019-01-04T02:32:24.542Z,881.76
2019-01-04T02:33:24.848Z,881.75
2019-01-04T02:35:16.566Z,881.79
2019-01-04T02:36:16.385Z,881.78
2019-01-04T02:38:09.070Z,881.76
2019-01-04T02:39:09.023Z,881.71
2019-01-04T02:41:01.275Z,881.71
2019-01-04T02:42:01.025Z,881.74
2019-01-04T02:43:53.379Z,881.72
2019-01-04T02:44:53.311Z,881.66
2019-01-04T02:46:46.216Z,881.64
2019-01-04T02:47:46.043Z,881.65
2019-01-04T02:49:37.992Z,881.64
2019-01-04T02:50:38.342Z,881.62
2019-01-04T02:52:30.854Z,881.60
2019-01-04T02:53:30.343Z,881.59
2019-01-04T02:55:22.654Z,881.61
2019-01-04T02:56:23.037Z,881.60
2019-01-04T02:58:15.196Z,881.56
2019-01-04T02:59:14.985Z,881.54
2019-01-04T03:01:07.663Z,881.55
2019-01-04T03:02:07.377Z,881.58
2019-01-04T03:04:00.176Z,881.51
2019-01-04T03:04:59.939Z,881.51
2019-01-04T03:08:23.349Z,881.49
2019-01-04T03:09:23.352Z,881.49
2019-01-04T03:11:15.585Z,881.48
2019-01-04T03:12:15.322Z,881.47
2019-01-04T03:14:08.650Z,881.43
2019-01-04T03:15:08.552Z,881.39
2019-01-04T03:17:00.788Z,881.42
2019-01-04T03:18:00.605Z,881.39
2019-01-04T03:19:52.886Z,881.37
2019-01-04T03:20:53.235Z,881.41
2019-01-04T03:22:45.785Z,881.42
2019-01-04T03:23:45.213Z,881.38
2019-01-04T03:25:37.908Z,881.39
2019-01-04T03:26:37.925Z,881.38
2019-01-04T03:28:30.217Z,881.35
2019-01-04T03:29:29.897Z,881.33
2019-01-04T03:31:22.593Z,881.36
2019-01-04T03:32:22.574Z,881.28
2019-01-04T03:34:14.772Z,881.28
2019-01-04T03:35:14.853Z,881.26
2019-01-04T03:38:37.462Z,881.27
2019-01-04T03:39:37.762Z,881.26
2019-01-04T03:41:30.367Z,881.27
2019-01-04T03:42:29.786Z,881.22
2019-01-04T03:44:22.485Z,881.15
2019-01-04T03:45:22.439Z,881.20
2019-01-04T03:47:15.121Z,881.15
2019-01-04T03:48:14.447Z,881.16
2019-01-04T03:50:07.151Z,881.14
2019-01-04T03:51:07.123Z,881.14
2019-01-04T03:52:58.905Z,881.08
2019-01-04T03:53:58.704Z,881.08
2019-01-04T03:55:51.415Z,881.07
2019-01-04T03:56:51.006Z,881.02
2019-01-04T03:58:43.628Z,881.05
2019-01-04T03:59:43.376Z,881.01
2019-01-04T04:01:35.725Z,881.02
2019-01-04T04:02:35.720Z,880.96
2019-01-04T04:04:28.614Z,880.94
2019-01-04T04:05:28.031Z,880.95
2019-01-04T04:07:20.792Z,880.93
2019-01-04T04:08:20.777Z,880.93
2019-01-04T04:10:13.963Z,880.87
2019-01-04T04:11:13.741Z,880.90
2019-01-04T04:13:06.182Z,880.93
2019-01-04T04:14:06.031Z,880.90
2019-01-04T04:15:58.922Z,880.91
2019-01-04T04:16:58.357Z,880.86
2019-01-04T04:18:50.702Z,880.84
2019-01-04T04:19:50.697Z,880.81
2019-01-04T04:21:43.617Z,880.84
2019-01-04T04:22:43.389Z,880.83
2019-01-04T04:24:35.460Z,880.83
2019-01-04T04:25:35.756Z,880.81
2019-01-04T04:27:28.321Z,880.82
2019-01-04T04:28:28.080Z,880.82
2019-01-04T04:30:20.073Z,880.76
2019-01-04T04:31:20.041Z,880.72
2019-01-04T04:33:12.925Z,880.73
2019-01-04T04:34:12.393Z,880.77
2019-01-04T04:36:05.100Z,880.77
2019-01-04T04:37:04.687Z,880.74
2019-01-04T04:38:57.591Z,880.67
2019-01-04T04:39:57.053Z,880.69
2019-01-04T04:41:49.490Z,880.62
2019-01-04T04:42:49.388Z,880.68
2019-01-04T04:44:41.944Z,880.60
2019-01-04T04:45:42.068Z,880.57
2019-01-04T04:47:34.096Z,880.58
2019-01-04T04:48:34.065Z,880.60
2019-01-04T04:50:26.972Z,880.63
2019-01-04T04:51:26.721Z,880.60
2019-01-04T04:53:18.725Z,880.61
2019-01-04T04:54:19.085Z,880.61
2019-01-04T04:56:11.665Z,880.57
2019-01-04T04:57:11.059Z,880.55
2019-01-04T04:59:03.926Z,880.56
2019-01-04T05:00:03.873Z,880.54
2019-01-04T05:01:56.527Z,880.48
2019-01-04T05:02:56.566Z,880.51
2019-01-04T05:04:48.563Z,880.49
2019-01-04T05:05:48.581Z,880.48
2019-01-04T05:07:41.507Z,880.45
2019-01-04T05:08:40.912Z,880.48
2019-01-04T05:10:33.580Z,880.44
2019-01-04T05:11:33.553Z,880.40
2019-01-04T05:13:25.782Z,880.41
2019-01-04T05:14:25.584Z,880.39
2019-01-04T05:16:18.258Z,880.38
2019-01-04T05:17:17.928Z,880.41
2019-01-04T05:19:10.434Z,880.34
2019-01-04T05:20:10.610Z,880.32
2019-01-04T05:22:02.919Z,880.29
2019-01-04T05:23:02.601Z,880.30
2019-01-04T05:24:55.127Z,880.29
2019-01-04T05:25:54.898Z,880.25
2019-01-04T05:27:47.630Z,880.31
2019-01-04T05:28:47.233Z,880.32
2019-01-04T05:30:40.139Z,880.29
2019-01-04T05:31:39.552Z,880.22
2019-01-04T05:33:32.268Z,880.29
2019-01-04T05:34:31.921Z,880.28
2019-01-04T05:36:27.554Z,880.26
2019-01-04T05:38:54.791Z,880.20
2019-01-04T05:39:54.809Z,880.16
2019-01-04T05:41:47.691Z,880.16
2019-01-04T05:42:47.109Z,880.12
2019-01-04T05:44:39.787Z,880.15
2019-01-04T05:45:39.452Z,880.13
2019-01-04T05:47:32.367Z,880.12
2019-01-04T05:48:32.168Z,880.10
2019-01-04T05:50:24.461Z,880.05
2019-01-04T05:51:24.484Z,880.06
2019-01-04T05:53:17.019Z,880.02
2019-01-04T05:54:16.802Z,880.02
2019-01-04T05:56:08.314Z,880.00
2019-01-04T05:57:08.314Z,880.07
2019-01-04T05:59:01.190Z,879.97
2019-01-04T06:00:01.020Z,879.99
2019-01-04T06:01:53.015Z,879.99
2019-01-04T06:02:53.915Z,880.02
2019-01-04T06:04:45.905Z,879.99
2019-01-04T06:07:38.573Z,879.96
2019-01-04T06:08:37.983Z,879.98
2019-01-04T06:10:30.656Z,879.98
2019-01-04T06:11:29.998Z,879.97
2019-01-04T06:13:22.782Z,879.99
2019-01-04T06:15:53.908Z,879.92
2019-01-04T06:16:53.688Z,879.93
2019-01-04T06:18:46.052Z,879.94
2019-01-04T06:19:46.058Z,879.96
2019-01-04T06:21:38.227Z,879.92
2019-01-04T06:22:38.096Z,879.92
2019-01-04T06:24:30.809Z,879.91
2019-01-04T06:25:30.731Z,879.87
2019-01-04T06:27:22.892Z,879.90
2019-01-04T06:28:23.007Z,879.87
2019-01-04T06:30:15.011Z,879.86
2019-01-04T06:31:14.993Z,879.87
2019-01-04T06:33:13.518Z,879.84
2019-01-04T06:34:07.672Z,879.88
2019-01-04T06:36:00.017Z,879.85
2019-01-04T06:36:59.690Z,879.85
2019-01-04T06:38:52.597Z,879.86
2019-01-04T06:39:52.364Z,879.83
2019-01-04T06:41:44.328Z,879.83
2019-01-04T06:42:44.307Z,879.80
2019-01-04T06:44:37.227Z,879.80
2019-01-04T06:45:37.030Z,879.79
2019-01-04T06:47:28.529Z,879.78
2019-01-04T06:48:28.861Z,879.82
2019-01-04T06:50:21.543Z,879.81
2019-01-04T06:51:21.177Z,879.76
2019-01-04T06:53:13.154Z,879.84
2019-01-04T06:54:13.131Z,879.81
2019-01-04T06:56:06.173Z,879.79
2019-01-04T06:57:05.460Z,879.82
2019-01-04T06:58:57.795Z,879.83
2019-01-04T06:59:58.140Z,879.79
2019-01-04T07:01:50.710Z,879.83
2019-01-04T07:02:50.477Z,879.77
2019-01-04T07:04:42.454Z,879.84
2019-01-04T07:05:42.769Z,879.82
2019-01-04T07:07:34.971Z,879.86
2019-01-04T07:08:34.769Z,879.87
2019-01-04T07:10:27.100Z,879.85
2019-01-04T07:11:27.462Z,879.85
2019-01-04T07:13:20.005Z,879.86
2019-01-04T07:14:19.801Z,879.82
2019-01-04T07:16:13.228Z,879.79
2019-01-04T07:17:12.380Z,879.81
2019-01-04T07:19:04.908Z,879.80
2019-01-04T07:20:05.025Z,879.79
2019-01-04T07:21:57.399Z,879.81
2019-01-04T07:22:57.406Z,879.77
2019-01-04T07:24:49.647Z,879.80
2019-01-04T07:25:49.402Z,879.80
2019-01-04T07:27:41.696Z,879.79
2019-01-04T07:28:42.040Z,879.74
2019-01-04T07:30:34.637Z,879.79
2019-01-04T07:31:34.053Z,879.75
2019-01-04T07:33:26.725Z,879.72
2019-01-04T07:34:26.711Z,879.74
2019-01-04T07:36:19.324Z,879.72
2019-01-04T07:37:18.770Z,879.71
2019-01-04T07:39:11.434Z,879.71
2019-01-04T07:40:11.098Z,879.72
2019-01-04T07:42:04.003Z,879.69
2019-01-04T07:43:03.416Z,879.69
2019-01-04T07:44:55.780Z,879.72
2019-01-04T07:45:55.775Z,879.69
2019-01-04T07:47:48.660Z,879.63
2019-01-04T07:48:48.419Z,879.67
2019-01-04T07:50:40.801Z,879.67
2019-01-04T07:51:40.434Z,879.70
2019-01-04T07:53:33.349Z,879.73
2019-01-04T07:54:32.758Z,879.70
2019-01-04T07:56:25.452Z,879.66
2019-01-04T07:57:25.038Z,879.66
2019-01-04T07:59:18.048Z,879.66
2019-01-04T08:00:17.780Z,879.66
2019-01-04T08:02:11.949Z,879.68
2019-01-04T08:03:11.931Z,879.72
2019-01-04T08:05:04.464Z,879.71
2019-01-04T08:06:04.270Z,879.74
2019-01-04T08:07:56.561Z,879.72
2019-01-04T08:08:56.610Z,879.73
2019-01-04T08:10:49.445Z,879.71
2019-01-04T08:11:49.256Z,879.67
2019-01-04T08:13:41.261Z,879.68
2019-01-04T08:14:41.218Z,879.70
2019-01-04T08:16:33.878Z,879.67
2019-01-04T08:17:33.575Z,879.70
2019-01-04T08:19:26.225Z,879.67
2019-01-04T08:20:26.248Z,879.65
2019-01-04T08:22:18.519Z,879.64
2019-01-04T08:23:18.604Z,879.67
2019-01-04T08:25:10.900Z,879.60
2019-01-04T08:26:10.532Z,879.69
2019-01-04T08:28:04.068Z,879.61
2019-01-04T08:30:55.252Z,879.61
2019-01-04T08:31:55.541Z,879.58
2019-01-04T08:33:48.146Z,879.59
2019-01-04T08:34:47.921Z,879.55
2019-01-04T08:36:40.347Z,879.57
2019-01-04T08:37:40.266Z,879.55
2019-01-04T08:41:03.855Z,879.54
2019-01-04T08:42:03.632Z,879.56
2019-01-04T08:43:56.610Z,879.56
2019-01-04T08:44:55.765Z,879.55
2019-01-04T08:46:48.320Z,879.57
2019-01-04T08:47:48.471Z,879.55
2019-01-04T08:49:40.793Z,879.57
2019-01-04T08:50:40.804Z,879.60
2019-01-04T08:52:33.074Z,879.57
2019-01-04T08:53:32.751Z,879.55
2019-01-04T08:55:25.141Z,879.56
2019-01-04T08:56:25.459Z,879.55
2019-01-04T08:58:17.694Z,879.52
2019-01-04T08:59:17.461Z,879.56
2019-01-04T09:01:09.807Z,879.60
2019-01-04T09:02:10.371Z,879.62
2019-01-04T09:04:02.725Z,879.62
2019-01-04T09:05:02.476Z,879.65
2019-01-04T09:06:54.864Z,879.67
2019-01-04T09:07:54.540Z,879.65
2019-01-04T09:09:47.489Z,879.67
2019-01-04T09:10:47.246Z,879.63
2019-01-04T09:12:39.233Z,879.61
2019-01-04T09:13:39.557Z,879.61
2019-01-04T09:15:32.525Z,879.63
2019-01-04T09:16:31.568Z,879.61
2019-01-04T09:18:23.896Z,879.61
2019-01-04T09:19:24.251Z,879.59
2019-01-04T09:21:16.809Z,879.61
2019-01-04T09:22:16.222Z,879.60
2019-01-04T09:24:09.203Z,879.63
2019-01-04T09:25:08.911Z,879.63
2019-01-04T09:27:01.496Z,879.62
2019-01-04T09:28:01.258Z,879.65
2019-01-04T09:29:53.602Z,879.64
2019-01-04T09:30:53.597Z,879.62
2019-01-04T09:32:46.747Z,879.67
2019-01-04T09:33:45.542Z,879.64
2019-01-04T09:35:38.249Z,879.64
2019-01-04T09:36:37.883Z,879.60
2019-01-04T09:38:30.801Z,879.65
2019-01-04T09:39:30.589Z,879.63
2019-01-04T09:41:22.071Z,879.61
2019-01-04T09:42:22.430Z,879.63
2019-01-04T09:44:15.000Z,879.61
2019-01-04T09:45:14.737Z,879.63
2019-01-04T09:47:06.609Z,879.68
2019-01-04T09:48:06.270Z,879.65
2019-01-04T09:49:59.179Z,879.66
2019-01-04T09:50:58.948Z,879.63
2019-01-04T09:52:51.238Z,879.62
2019-01-04T09:53:50.927Z,879.65
2019-01-04T09:55:43.482Z,879.58
2019-01-04T09:56:43.218Z,879.60
2019-01-04T09:58:35.943Z,879.58
2019-01-04T09:59:35.590Z,879.59
2019-01-04T10:01:28.460Z,879.56
2019-01-04T10:02:28.271Z,879.59
2019-01-04T10:04:20.612Z,879.57
2019-01-04T10:05:20.607Z,879.57
2019-01-04T10:07:13.165Z,879.63
2019-01-04T10:08:12.894Z,879.57
2019-01-04T10:10:04.891Z,879.60
2019-01-04T10:11:05.238Z,879.62
2019-01-04T10:12:57.767Z,879.68
2019-01-04T10:13:57.542Z,879.63
2019-01-04T10:15:49.912Z,879.62
2019-01-04T10:16:49.891Z,879.61
2019-01-04T10:18:42.133Z,879.66
2019-01-04T10:19:41.873Z,879.57
2019-01-04T10:21:34.120Z,879.60
2019-01-04T10:22:34.127Z,879.59
2019-01-04T10:24:26.681Z,879.64
2019-01-04T10:25:26.453Z,879.65
2019-01-04T10:27:18.765Z,879.64
2019-01-04T10:28:18.770Z,879.65
2019-01-04T10:30:10.991Z,879.64
2019-01-04T10:31:11.108Z,879.68
2019-01-04T10:33:03.088Z,879.65
2019-01-04T10:34:03.436Z,879.65
2019-01-04T10:35:55.681Z,879.66
2019-01-04T10:36:55.439Z,879.65
2019-01-04T10:38:47.751Z,879.67
2019-01-04T10:39:47.730Z,879.64
2019-01-04T10:41:40.670Z,879.67
2019-01-04T10:42:40.461Z,879.67
2019-01-04T10:44:32.823Z,879.65
2019-01-04T10:45:32.408Z,879.67
2019-01-04T10:47:24.975Z,879.65
2019-01-04T10:48:25.097Z,879.69
2019-01-04T10:50:17.461Z,879.66
2019-01-04T10:51:17.418Z,879.69
2019-01-04T10:53:09.151Z,879.68
2019-01-04T10:54:08.953Z,879.77
2019-01-04T10:56:01.624Z,879.75
2019-01-04T10:57:01.629Z,879.77
2019-01-04T10:58:54.124Z,879.73
2019-01-04T10:59:53.902Z,879.74
2019-01-04T11:01:46.305Z,879.80
2019-01-04T11:02:45.914Z,879.80
2019-01-04T11:04:38.356Z,879.78
2019-01-04T11:05:37.768Z,879.79
2019-01-04T11:07:30.485Z,879.85
2019-01-04T11:08:30.095Z,879.82
2019-01-04T11:10:23.007Z,879.85
2019-01-04T11:11:22.453Z,879.82
2019-01-04T11:13:14.799Z,879.81
2019-01-04T11:14:15.146Z,879.81
2019-01-04T11:16:06.830Z,879.80
2019-01-04T11:17:06.626Z,879.81
2019-01-04T11:18:59.927Z,879.84
2019-01-04T11:19:59.604Z,879.82
2019-01-04T11:21:52.152Z,879.84
2019-01-04T11:22:51.894Z,879.82
2019-01-04T11:24:44.571Z,879.85
2019-01-04T11:25:44.251Z,879.90
2019-01-04T11:27:36.823Z,879.92
2019-01-04T11:28:36.543Z,879.86
2019-01-04T11:30:28.891Z,879.85
2019-01-04T11:31:29.238Z,879.88
2019-01-04T11:33:21.854Z,879.88
2019-01-04T11:34:21.608Z,879.89
2019-01-04T11:36:13.939Z,879.90
2019-01-04T11:37:13.607Z,879.94
2019-01-04T11:39:06.171Z,879.96
2019-01-04T11:40:06.249Z,879.97
2019-01-04T11:41:58.139Z,879.98
2019-01-04T11:42:58.099Z,879.98
2019-01-04T11:44:50.717Z,879.98
2019-01-04T11:45:50.123Z,879.95
2019-01-04T11:47:42.558Z,879.95
2019-01-04T11:48:42.427Z,879.96
2019-01-04T11:50:35.323Z,879.92
2019-01-04T11:51:35.151Z,879.99
2019-01-04T11:53:27.457Z,879.96
2019-01-04T11:54:27.423Z,879.99
2019-01-04T11:56:19.678Z,879.97
2019-01-04T11:57:19.492Z,880.00
2019-01-04T11:59:12.147Z,880.00
2019-01-04T12:00:12.137Z,879.98
2019-01-04T12:02:04.386Z,879.98
2019-01-04T12:03:04.159Z,879.98
2019-01-04T12:04:56.464Z,879.96
2019-01-04T12:05:56.451Z,879.92
2019-01-04T12:07:49.033Z,879.90
2019-01-04T12:08:48.809Z,879.93
2019-01-04T12:10:41.475Z,879.94
2019-01-04T12:11:41.130Z,879.90
2019-01-04T12:13:34.277Z,879.90
2019-01-04T12:14:33.434Z,879.91
2019-01-04T12:16:26.153Z,879.85
2019-01-04T12:17:25.796Z,879.84
2019-01-04T12:19:18.703Z,879.82
2019-01-04T12:20:18.118Z,879.83
2019-01-04T12:22:10.787Z,879.76
2019-01-04T12:23:11.235Z,879.76
2019-01-04T12:25:03.013Z,879.75
2019-01-04T12:26:03.119Z,879.77
2019-01-04T12:27:55.451Z,879.75
2019-01-04T12:28:55.068Z,879.77
2019-01-04T12:30:47.649Z,879.81
2019-01-04T12:31:47.757Z,879.77
2019-01-04T12:33:39.775Z,879.74
2019-01-04T12:34:39.761Z,879.70
2019-01-04T12:36:32.390Z,879.71
2019-01-04T12:37:32.411Z,879.71
2019-01-04T12:39:24.399Z,879.70
2019-01-04T12:40:24.770Z,879.71
2019-01-04T12:42:17.329Z,879.70
2019-01-04T12:43:16.732Z,879.73
2019-01-04T12:45:09.044Z,879.72
2019-01-04T12:46:09.377Z,879.68
2019-01-04T12:48:02.954Z,879.66
2019-01-04T12:49:02.744Z,879.67
2019-01-04T12:50:54.687Z,879.71
2019-01-04T12:51:55.042Z,879.67
2019-01-04T12:53:47.605Z,879.64
2019-01-04T12:54:47.010Z,879.64
2019-01-04T12:56:39.348Z,879.66
2019-01-04T12:57:39.322Z,879.65
2019-01-04T12:59:32.248Z,879.67
2019-01-04T13:00:31.688Z,879.67
2019-01-04T13:02:24.388Z,879.62
2019-01-04T13:03:24.012Z,879.61
2019-01-04T13:05:16.558Z,879.63
2019-01-04T13:06:16.341Z,879.65
2019-01-04T13:08:08.635Z,879.64
2019-01-04T13:09:09.029Z,879.61
2019-01-04T13:11:01.203Z,879.57
2019-01-04T13:12:00.951Z,879.61
2019-01-04T13:13:53.299Z,879.55
2019-01-04T13:14:53.287Z,879.61
2019-01-04T13:16:46.217Z,879.59
2019-01-04T13:17:45.658Z,879.57
2019-01-04T13:19:38.523Z,879.59
2019-01-04T13:20:38.499Z,879.58
2019-01-04T13:22:31.385Z,879.60
2019-01-04T13:23:30.864Z,879.59
2019-01-04T13:25:23.180Z,879.56
2019-01-04T13:26:23.154Z,879.55
2019-01-04T13:28:15.748Z,879.57
2019-01-04T13:29:15.863Z,879.57
2019-01-04T13:31:08.470Z,879.62
2019-01-04T13:32:08.210Z,879.60
2019-01-04T13:34:00.361Z,879.65
2019-01-04T13:35:00.237Z,879.66
2019-01-04T13:36:52.493Z,879.66
2019-01-04T13:37:52.870Z,879.59
2019-01-04T13:39:45.073Z,879.67
2019-01-04T13:40:45.171Z,879.63
2019-01-04T13:42:37.142Z,879.63
2019-01-04T13:43:37.502Z,879.63
2019-01-04T13:45:29.686Z,879.66
2019-01-04T13:46:29.849Z,879.69
2019-01-04T13:48:21.351Z,879.70
2019-01-04T13:49:21.640Z,879.69
2019-01-04T13:51:13.896Z,879.67
2019-01-04T13:52:14.005Z,879.70
2019-01-04T13:54:06.007Z,879.69
2019-01-04T13:55:06.346Z,879.69
2019-01-04T13:56:58.532Z,879.69
2019-01-04T13:57:58.282Z,879.64
2019-01-04T13:59:51.005Z,879.65
2019-01-04T14:00:50.614Z,879.62
2019-01-04T14:02:43.640Z,879.66
2019-01-04T14:03:42.965Z,879.65
2019-01-04T14:05:35.310Z,879.67
2019-01-04T14:06:35.660Z,879.64
2019-01-04T14:08:27.404Z,879.63
2019-01-04T14:09:27.132Z,879.61
2019-01-04T14:11:19.835Z,879.58
2019-01-04T14:12:19.485Z,879.57
2019-01-04T14:14:12.364Z,879.55
2019-01-04T14:15:11.773Z,879.55
2019-01-04T14:17:04.117Z,879.52
2019-01-04T14:18:04.464Z,879.53
2019-01-04T14:19:57.055Z,879.49
2019-01-04T14:20:56.465Z,879.47
2019-01-04T14:22:48.783Z,879.51
2019-01-04T14:23:49.160Z,879.48
2019-01-04T14:25:41.696Z,879.52
2019-01-04T14:26:41.439Z,879.48
2019-01-04T14:28:33.433Z,879.47
2019-01-04T14:29:33.470Z,879.50
2019-01-04T14:31:26.369Z,879.47
2019-01-04T14:32:26.134Z,879.45
2019-01-04T14:34:18.512Z,879.45
2019-01-04T14:35:18.139Z,879.45
2019-01-04T14:37:10.676Z,879.44
2019-01-04T14:38:10.796Z,879.41
2019-01-04T14:40:03.193Z,879.38
2019-01-04T14:41:03.161Z,879.39
2019-01-04T14:42:54.900Z,879.38
2019-01-04T14:43:54.632Z,879.37
2019-01-04T14:45:47.317Z,879.39
2019-01-04T14:46:47.351Z,879.41
2019-01-04T14:48:39.529Z,879.37
2019-01-04T14:49:39.319Z,879.36
2019-01-04T14:51:31.982Z,879.35
2019-01-04T14:52:31.969Z,879.34
2019-01-04T14:54:24.190Z,879.37
2019-01-04T14:55:23.944Z,879.40
2019-01-04T14:57:16.283Z,879.33
2019-01-04T14:58:16.619Z,879.32
2019-01-04T15:00:09.197Z,879.31
2019-01-04T15:01:08.973Z,879.32
2019-01-04T15:03:01.281Z,879.31
2019-01-04T15:04:01.299Z,879.29
2019-01-04T15:05:53.883Z,879.29
2019-01-04T15:06:53.244Z,879.27
2019-01-04T15:08:45.603Z,879.24
2019-01-04T15:09:45.936Z,879.26
2019-01-04T15:11:38.114Z,879.24
2019-01-04T15:12:37.947Z,879.22
2019-01-04T15:14:30.608Z,879.20
2019-01-04T15:15:30.273Z,879.21
2019-01-04T15:17:23.160Z,879.23
2019-01-04T15:18:22.935Z,879.22
2019-01-04T15:20:16.064Z,879.22
2019-01-04T15:21:16.016Z,879.25
2019-01-04T15:23:08.203Z,879.22
2019-01-04T15:24:08.358Z,879.24
2019-01-04T15:26:00.668Z,879.20
2019-01-04T15:27:00.323Z,879.21
2019-01-04T15:28:53.251Z,879.22
2019-01-04T15:29:52.983Z,879.22
2019-01-04T15:31:45.009Z,879.22
2019-01-04T15:32:45.380Z,879.18
2019-01-04T15:34:37.911Z,879.16
2019-01-04T15:35:37.303Z,879.15
2019-01-04T15:37:29.647Z,879.16
2019-01-04T15:38:36.038Z,879.16
2019-01-04T15:40:22.208Z,879.18
2019-01-04T15:41:22.326Z,879.18
2019-01-04T15:43:14.688Z,879.16
2019-01-04T15:44:14.301Z,879.10
2019-01-04T15:46:06.357Z,879.10
2019-01-04T15:47:06.520Z,879.12
2019-01-04T15:48:58.499Z,879.06
2019-01-04T15:49:58.518Z,879.09
2019-01-04T15:51:51.029Z,879.05
2019-01-04T15:52:51.143Z,879.04
2019-01-04T15:54:43.197Z,878.99
2019-01-04T15:55:43.484Z,879.02
2019-01-04T15:57:35.732Z,879.03
2019-01-04T15:58:35.511Z,878.99
2019-01-04T16:00:27.834Z,879.00
2019-01-04T16:01:27.809Z,878.98
2019-01-04T16:03:20.368Z,878.95
2019-01-04T16:04:20.527Z,878.89
2019-01-04T16:06:12.838Z,878.87
2019-01-04T16:07:12.500Z,878.88
2019-01-04T16:09:05.011Z,878.83
2019-01-04T16:10:05.145Z,878.85
2019-01-04T16:11:57.129Z,878.81
2019-01-04T16:12:57.157Z,878.79
2019-01-04T16:14:49.664Z,878.81
2019-01-04T16:15:49.433Z,878.80
2019-01-04T16:17:42.136Z,878.76
2019-01-04T16:18:41.760Z,878.78
2019-01-04T16:20:34.332Z,878.78
2019-01-04T16:21:34.510Z,878.77
2019-01-04T16:23:26.469Z,878.76
2019-01-04T16:24:26.845Z,878.78
2019-01-04T16:26:19.327Z,878.75
2019-01-04T16:27:18.781Z,878.75
2019-01-04T16:29:11.164Z,878.70
2019-01-04T16:30:11.448Z,878.72
2019-01-04T16:32:03.708Z,878.67
2019-01-04T16:33:03.822Z,878.65
2019-01-04T16:34:56.180Z,878.68
2019-01-04T16:35:56.158Z,878.63
2019-01-04T16:37:48.375Z,878.61
2019-01-04T16:38:48.127Z,878.62
2019-01-04T16:40:40.519Z,878.58
2019-01-04T16:41:40.866Z,878.59
2019-01-04T16:43:33.379Z,878.54
2019-01-04T16:44:33.123Z,878.56
2019-01-04T16:46:25.133Z,878.50
2019-01-04T16:47:25.486Z,878.53
2019-01-04T16:49:17.687Z,878.51
2019-01-04T16:50:17.490Z,878.53
2019-01-04T16:52:10.190Z,878.48
2019-01-04T16:53:10.122Z,878.47
2019-01-04T16:55:02.381Z,878.50
2019-01-04T16:56:02.510Z,878.49
2019-01-04T16:57:54.860Z,878.49
2019-01-04T16:58:54.852Z,878.50
2019-01-04T17:00:47.056Z,878.52
2019-01-04T17:01:46.825Z,878.48
2019-01-04T17:03:39.496Z,878.51
2019-01-04T17:04:39.158Z,878.49
2019-01-04T17:06:31.721Z,878.48
2019-01-04T17:07:31.453Z,878.45
2019-01-04T17:09:23.799Z,878.45
2019-01-04T17:10:23.781Z,878.43
2019-01-04T17:12:16.723Z,878.41
2019-01-04T17:13:16.469Z,878.40
2019-01-04T17:15:08.005Z,878.40
2019-01-04T17:16:08.000Z,878.43
2019-01-04T17:18:00.864Z,878.42
2019-01-04T17:19:00.284Z,878.41
2019-01-04T17:20:53.538Z,878.41
2019-01-04T17:21:53.205Z,878.40
2019-01-04T17:23:46.100Z,878.38
2019-01-04T17:24:45.520Z,878.36
2019-01-04T17:26:37.901Z,878.36
2019-01-04T17:27:38.181Z,878.34
2019-01-04T17:29:30.458Z,878.33
2019-01-04T17:30:30.214Z,878.33
2019-01-04T17:32:22.725Z,878.33
2019-01-04T17:33:22.724Z,878.34
2019-01-04T17:35:15.673Z,878.30
2019-01-04T17:36:15.441Z,878.32
2019-01-04T17:38:07.790Z,878.31
2019-01-04T17:39:07.721Z,878.30
2019-01-04T17:40:59.931Z,878.26
2019-01-04T17:42:00.049Z,878.27
2019-01-04T17:43:52.448Z,878.26
2019-01-04T17:44:52.383Z,878.27
2019-01-04T17:46:44.938Z,878.28
2019-01-04T17:47:44.755Z,878.27
2019-01-04T17:49:36.731Z,878.27
2019-01-04T17:50:36.718Z,878.27
2019-01-04T17:52:29.638Z,878.26
2019-01-04T17:53:29.070Z,878.26
2019-01-04T17:55:21.457Z,878.24
2019-01-04T17:56:21.397Z,878.23
2019-01-04T17:58:13.999Z,878.23
2019-01-04T17:59:13.737Z,878.22
2019-01-04T18:01:06.071Z,878.20
2019-01-04T18:02:06.418Z,878.17
2019-01-04T18:03:58.627Z,878.15
2019-01-04T18:04:58.716Z,878.18
2019-01-04T18:06:51.088Z,878.17